createdAt,value
2018-06-16T00:02:22.622Z,3.53
2018-06-16T00:04:50.943Z,3.70
2018-06-16T00:07:19.272Z,3.37
2018-06-16T00:09:47.534Z,3.33
2018-06-16T00:12:15.576Z,3.70
2018-06-16T00:14:43.895Z,3.80
2018-06-16T00:17:12.262Z,3.67
2018-06-16T00:19:40.519Z,3.30
2018-06-16T00:22:08.836Z,3.97
2018-06-16T00:24:37.136Z,3.60
2018-06-16T00:27:05.448Z,3.97
2018-06-16T00:29:33.754Z,3.53
2018-06-16T00:32:02.055Z,3.87
2018-06-16T00:34:30.348Z,3.67
2018-06-16T00:36:58.623Z,3.50
2018-06-16T00:39:26.928Z,3.50
2018-06-16T00:41:55.214Z,3.67
2018-06-16T00:44:23.510Z,3.50
2018-06-16T00:46:51.599Z,3.60
2018-06-16T00:49:19.889Z,3.60
2018-06-16T00:51:48.168Z,3.70
2018-06-16T00:54:16.448Z,3.53
2018-06-16T00:56:51.564Z,3.80
2018-06-16T00:59:19.852Z,3.67
2018-06-16T01:01:48.168Z,3.83
2018-06-16T01:04:16.471Z,3.30
2018-06-16T01:06:44.968Z,3.60
2018-06-16T01:09:13.234Z,3.73
2018-06-16T01:11:41.505Z,4.03
2018-06-16T01:14:09.778Z,3.77
2018-06-16T01:16:38.212Z,3.97
2018-06-16T01:19:06.510Z,3.93
2018-06-16T01:21:34.792Z,3.87
2018-06-16T01:24:03.082Z,3.57
2018-06-16T01:26:31.396Z,3.97
2018-06-16T01:28:59.692Z,3.87
2018-06-16T01:31:27.990Z,3.77
2018-06-16T01:33:56.293Z,3.80
2018-06-16T01:36:24.470Z,4.03
2018-06-16T01:38:52.758Z,4.07
2018-06-16T01:41:21.046Z,4.43
2018-06-16T01:43:49.372Z,4.03
2018-06-16T01:46:17.707Z,4.30
2018-06-16T01:48:45.992Z,3.83
2018-06-16T01:51:14.284Z,4.00
2018-06-16T01:53:42.590Z,3.80
2018-06-16T01:56:10.944Z,3.67
2018-06-16T01:58:39.265Z,4.37
2018-06-16T02:01:07.339Z,4.43
2018-06-16T02:03:35.374Z,4.07
2018-06-16T02:06:03.677Z,4.60
2018-06-16T02:08:31.965Z,4.40
2018-06-16T02:11:00.016Z,4.60
2018-06-16T02:13:28.320Z,4.10
2018-06-16T02:15:56.641Z,4.43
2018-06-16T02:18:25.161Z,4.57
2018-06-16T02:20:53.948Z,4.27
2018-06-16T02:23:22.231Z,4.77
2018-06-16T02:25:50.507Z,4.50
2018-06-16T02:28:18.794Z,4.23
2018-06-16T02:30:47.091Z,5.10
2018-06-16T02:33:15.387Z,4.70
2018-06-16T02:35:43.769Z,4.80
2018-06-16T02:38:12.078Z,4.30
2018-06-16T02:40:40.137Z,4.10
2018-06-16T02:43:08.428Z,4.43
2018-06-16T02:45:36.718Z,4.47
2018-06-16T02:48:05.228Z,4.27
2018-06-16T02:50:33.678Z,4.90
2018-06-16T02:53:01.875Z,5.00
2018-06-16T02:55:30.161Z,4.57
2018-06-16T02:57:58.473Z,4.67
2018-06-16T03:00:26.807Z,5.00
2018-06-16T03:02:55.094Z,5.07
2018-06-16T03:05:23.380Z,4.77
2018-06-16T03:07:51.718Z,5.10
2018-06-16T03:10:20.057Z,4.90
2018-06-16T03:12:48.359Z,4.67
2018-06-16T03:15:16.522Z,4.77
2018-06-16T03:17:44.463Z,5.30
2018-06-16T03:20:12.771Z,4.67
2018-06-16T03:22:41.084Z,5.37
2018-06-16T03:25:09.374Z,5.33
2018-06-16T03:27:37.750Z,5.50
2018-06-16T03:30:06.301Z,5.60
2018-06-16T03:32:34.540Z,6.37
2018-06-16T03:35:02.833Z,6.60
2018-06-16T03:37:31.172Z,6.10
2018-06-16T03:39:59.466Z,6.27
2018-06-16T03:42:27.771Z,5.80
2018-06-16T03:44:55.823Z,6.00
2018-06-16T03:47:24.976Z,7.07
2018-06-16T03:49:53.267Z,6.20
2018-06-16T03:52:21.566Z,6.53
2018-06-16T03:54:49.865Z,6.03
2018-06-16T03:57:18.126Z,6.73
2018-06-16T03:59:46.464Z,6.97
2018-06-16T04:02:14.741Z,7.00
2018-06-16T04:04:43.012Z,6.80
2018-06-16T04:07:11.309Z,6.13
2018-06-16T04:09:39.620Z,7.23
2018-06-16T04:12:07.909Z,6.77
2018-06-16T04:14:36.180Z,7.17
2018-06-16T04:17:08.035Z,6.93
2018-06-16T04:19:36.210Z,7.27
2018-06-16T04:22:04.474Z,7.27
2018-06-16T04:24:32.778Z,7.43
2018-06-16T04:27:01.065Z,7.40
2018-06-16T04:29:29.358Z,6.80
2018-06-16T04:31:57.731Z,8.20
2018-06-16T04:34:25.733Z,7.60
2018-06-16T04:36:54.044Z,7.73
2018-06-16T04:39:22.362Z,8.03
2018-06-16T04:41:50.650Z,8.63
2018-06-16T04:44:18.945Z,8.23
2018-06-16T04:46:47.227Z,8.07
2018-06-16T04:49:15.509Z,9.17
2018-06-16T04:51:43.827Z,8.70
2018-06-16T04:54:12.146Z,7.93
2018-06-16T04:56:40.427Z,8.50
2018-06-16T04:59:08.724Z,9.70
2018-06-16T05:01:37.054Z,8.33
2018-06-16T05:04:05.368Z,9.37
2018-06-16T05:06:33.672Z,9.03
2018-06-16T05:09:01.957Z,8.37
2018-06-16T05:11:30.239Z,8.50
2018-06-16T05:13:58.554Z,8.93
2018-06-16T05:16:26.838Z,9.13
2018-06-16T05:18:55.150Z,9.40
2018-06-16T05:21:23.482Z,8.63
2018-06-16T05:23:51.802Z,9.77
2018-06-16T05:26:20.115Z,9.60
2018-06-16T05:28:48.426Z,9.57
2018-06-16T05:31:16.754Z,9.47
2018-06-16T05:33:45.040Z,9.23
2018-06-16T05:36:13.360Z,9.47
2018-06-16T05:38:42.660Z,9.70
2018-06-16T05:41:10.964Z,10.20
2018-06-16T05:43:39.260Z,11.03
2018-06-16T05:46:07.586Z,10.20
2018-06-16T05:48:35.893Z,14.70
2018-06-16T05:51:04.186Z,10.77
2018-06-16T05:53:32.482Z,11.10
2018-06-16T05:56:00.784Z,10.63
2018-06-16T05:58:29.113Z,11.13
2018-06-16T06:00:57.418Z,10.47
2018-06-16T06:03:25.732Z,10.67
2018-06-16T06:05:54.038Z,10.67
2018-06-16T06:08:22.406Z,11.27
2018-06-16T06:10:50.718Z,12.20
2018-06-16T06:13:19.044Z,12.80
2018-06-16T06:15:47.435Z,11.73
2018-06-16T06:18:15.710Z,11.63
2018-06-16T06:20:44.022Z,12.03
2018-06-16T06:23:12.334Z,12.10
2018-06-16T06:25:40.682Z,11.90
2018-06-16T06:28:08.998Z,12.50
2018-06-16T06:30:37.310Z,12.33
2018-06-16T06:33:05.608Z,12.00
2018-06-16T06:35:33.964Z,12.80
2018-06-16T06:38:02.269Z,12.53
2018-06-16T06:40:30.590Z,13.30
2018-06-16T06:42:58.914Z,13.17
2018-06-16T06:45:27.226Z,14.33
2018-06-16T06:47:55.616Z,14.97
2018-06-16T06:50:23.962Z,14.10
2018-06-16T06:52:52.708Z,15.80
2018-06-16T06:55:21.043Z,15.73
2018-06-16T06:57:49.365Z,15.97
2018-06-16T07:00:17.661Z,16.63
2018-06-16T07:02:45.960Z,15.83
2018-06-16T07:05:14.634Z,16.33
2018-06-16T07:07:42.933Z,16.93
2018-06-16T07:10:11.273Z,16.67
2018-06-16T07:12:39.648Z,17.27
2018-06-16T07:15:07.982Z,16.90
2018-06-16T07:17:36.283Z,16.60
2018-06-16T07:20:04.411Z,17.13
2018-06-16T07:22:32.705Z,17.80
2018-06-16T07:25:01.023Z,17.97
2018-06-16T07:27:29.346Z,18.73
2018-06-16T07:29:57.706Z,18.27
2018-06-16T07:32:26.008Z,18.50
2018-06-16T07:34:54.360Z,19.10
2018-06-16T07:37:22.667Z,19.10
2018-06-16T07:39:50.974Z,19.93
2018-06-16T07:42:19.272Z,18.97
2018-06-16T07:44:47.608Z,18.77
2018-06-16T07:47:15.910Z,18.73
2018-06-16T07:49:44.221Z,20.30
2018-06-16T07:52:12.531Z,20.47
2018-06-16T07:54:40.847Z,19.30
2018-06-16T07:57:09.182Z,21.00
2018-06-16T07:59:37.525Z,20.33
2018-06-16T08:02:05.856Z,20.47
2018-06-16T08:04:34.158Z,20.50
2018-06-16T08:07:02.448Z,21.03
2018-06-16T08:09:30.796Z,21.70
2018-06-16T08:11:59.132Z,21.70
2018-06-16T08:14:27.439Z,20.27
2018-06-16T08:16:55.722Z,20.20
2018-06-16T08:19:24.402Z,20.57
2018-06-16T08:21:52.460Z,21.70
2018-06-16T08:24:20.759Z,20.07
2018-06-16T08:26:49.058Z,20.33
2018-06-16T08:29:17.344Z,17.87
2018-06-16T08:31:45.690Z,19.03
2018-06-16T08:34:14.033Z,16.90
2018-06-16T08:36:42.399Z,16.37
2018-06-16T08:39:12.009Z,17.27
2018-06-16T08:41:40.694Z,16.03
2018-06-16T08:44:09.493Z,15.93
2018-06-16T08:46:38.095Z,15.73
2018-06-16T08:49:06.565Z,15.30
2018-06-16T08:51:34.861Z,15.77
2018-06-16T08:54:03.196Z,15.47
2018-06-16T08:56:31.535Z,14.90
2018-06-16T08:59:02.846Z,16.00
2018-06-16T09:01:31.144Z,14.73
2018-06-16T09:03:59.429Z,14.57
2018-06-16T09:06:27.736Z,14.97
2018-06-16T09:08:56.065Z,14.00
2018-06-16T09:11:24.170Z,15.53
2018-06-16T09:13:52.664Z,13.47
2018-06-16T09:16:21.004Z,16.30
2018-06-16T09:18:49.286Z,15.00
2018-06-16T09:21:17.643Z,14.87
2018-06-16T09:23:45.698Z,14.20
2018-06-16T09:26:13.767Z,11.97
2018-06-16T09:28:42.076Z,12.33
2018-06-16T09:31:10.375Z,14.27
2018-06-16T09:33:38.690Z,11.43
2018-06-16T09:36:07.083Z,10.20
2018-06-16T09:38:35.416Z,8.23
2018-06-16T09:41:03.720Z,9.37
2018-06-16T09:43:32.046Z,7.63
2018-06-16T09:46:00.358Z,7.57
2018-06-16T09:48:28.698Z,6.90
2018-06-16T09:50:57.032Z,7.53
2018-06-16T09:53:25.324Z,6.27
2018-06-16T09:55:53.600Z,7.40
2018-06-16T09:58:21.976Z,6.37
2018-06-16T10:00:50.034Z,5.70
2018-06-16T10:03:18.376Z,5.40
2018-06-16T10:05:46.661Z,6.23
2018-06-16T10:08:14.989Z,7.17
2018-06-16T10:10:43.307Z,5.87
2018-06-16T10:13:11.620Z,6.17
2018-06-16T10:15:39.935Z,5.67
2018-06-16T10:18:08.285Z,5.37
2018-06-16T10:20:36.642Z,4.70
2018-06-16T10:23:04.973Z,4.90
2018-06-16T10:25:33.280Z,5.77
2018-06-16T10:28:01.572Z,4.63
2018-06-16T10:30:29.888Z,3.77
2018-06-16T10:32:58.168Z,3.93
2018-06-16T10:35:26.456Z,4.07
2018-06-16T10:37:54.768Z,4.93
2018-06-16T10:40:23.108Z,5.20
2018-06-16T10:42:51.388Z,4.60
2018-06-16T10:45:19.668Z,5.10
2018-06-16T10:47:47.977Z,4.60
2018-06-16T10:50:16.294Z,4.70
2018-06-16T10:52:44.595Z,5.00
2018-06-16T10:55:12.898Z,4.77
2018-06-16T10:57:41.194Z,5.30
2018-06-16T11:00:09.578Z,5.10
2018-06-16T11:02:37.886Z,5.70
2018-06-16T11:05:06.172Z,4.83
2018-06-16T11:07:34.484Z,4.57
2018-06-16T11:10:02.793Z,4.43
2018-06-16T11:12:31.096Z,4.27
2018-06-16T11:14:59.432Z,3.77
2018-06-16T11:17:27.764Z,3.33
2018-06-16T11:19:56.042Z,3.77
2018-06-16T11:22:24.359Z,3.83
2018-06-16T11:24:52.910Z,3.83
2018-06-16T11:27:21.228Z,3.17
2018-06-16T11:29:49.585Z,3.90
2018-06-16T11:32:17.872Z,3.97
2018-06-16T11:34:46.196Z,3.27
2018-06-16T11:37:15.027Z,3.37
2018-06-16T11:39:43.373Z,3.90
2018-06-16T11:42:11.724Z,3.50
2018-06-16T11:44:40.173Z,3.30
2018-06-16T11:47:08.502Z,3.60
2018-06-16T11:49:36.850Z,3.90
2018-06-16T11:52:05.148Z,3.53
2018-06-16T11:54:33.588Z,3.93
2018-06-16T11:57:02.045Z,4.10
2018-06-16T11:59:30.392Z,4.83
2018-06-16T12:01:58.752Z,4.10
2018-06-16T12:04:27.036Z,4.57
2018-06-16T12:06:55.346Z,4.37
2018-06-16T12:09:23.698Z,4.63
2018-06-16T12:11:52.004Z,3.60
2018-06-16T12:14:20.270Z,3.33
2018-06-16T12:16:48.638Z,3.33
2018-06-16T12:19:16.956Z,2.83
2018-06-16T12:21:45.286Z,2.90
2018-06-16T12:24:13.596Z,3.00
2018-06-16T12:26:42.078Z,2.97
2018-06-16T12:29:10.386Z,3.17
2018-06-16T12:31:38.696Z,3.10
2018-06-16T12:34:06.963Z,2.90
2018-06-16T12:36:35.273Z,2.90
2018-06-16T12:39:05.234Z,2.80
2018-06-16T12:41:33.530Z,2.87
2018-06-16T12:44:01.821Z,2.30
2018-06-16T12:46:30.101Z,3.07
2018-06-16T12:48:58.417Z,2.70
2018-06-16T12:51:26.914Z,2.93
2018-06-16T12:53:55.270Z,2.70
2018-06-16T12:56:23.635Z,2.80
2018-06-16T12:58:51.940Z,3.20
2018-06-16T13:01:20.246Z,3.20
2018-06-16T13:03:48.548Z,2.90
2018-06-16T13:06:16.839Z,3.47
2018-06-16T13:08:45.163Z,3.33
2018-06-16T13:11:13.942Z,3.43
2018-06-16T13:13:42.243Z,4.63
2018-06-16T13:16:10.516Z,3.50
2018-06-16T13:18:38.856Z,4.37
2018-06-16T13:21:07.172Z,4.50
2018-06-16T13:23:35.483Z,4.87
2018-06-16T13:26:03.786Z,4.93
2018-06-16T13:28:32.131Z,4.53
2018-06-16T13:31:00.414Z,4.70
2018-06-16T13:33:28.693Z,4.73
2018-06-16T13:35:56.989Z,5.07
2018-06-16T13:38:25.316Z,4.30
2018-06-16T13:40:53.593Z,5.90
2018-06-16T13:43:21.899Z,5.80
2018-06-16T13:45:50.195Z,7.77
2018-06-16T13:48:18.557Z,7.70
2018-06-16T13:50:46.873Z,8.20
2018-06-16T13:53:15.205Z,7.80
2018-06-16T13:55:43.518Z,7.87
2018-06-16T13:58:11.821Z,8.33
2018-06-16T14:00:40.146Z,8.10
2018-06-16T14:03:08.438Z,8.47
2018-06-16T14:05:36.728Z,7.83
2018-06-16T14:08:05.382Z,8.33
2018-06-16T14:10:33.698Z,7.73
2018-06-16T14:13:02.022Z,8.37
2018-06-16T14:15:30.312Z,8.20
2018-06-16T14:17:58.622Z,9.03
2018-06-16T14:20:26.924Z,8.40
2018-06-16T14:22:55.231Z,8.87
2018-06-16T14:25:23.570Z,8.63
2018-06-16T14:27:51.880Z,7.97
2018-06-16T14:30:20.228Z,8.57
2018-06-16T14:32:48.557Z,8.17
2018-06-16T14:35:16.898Z,7.60
2018-06-16T14:37:45.222Z,8.30
2018-06-16T14:40:13.523Z,7.20
2018-06-16T14:42:41.815Z,7.13
2018-06-16T14:45:10.094Z,7.87
2018-06-16T14:47:38.390Z,7.23
2018-06-16T14:50:06.730Z,7.10
2018-06-16T14:52:35.082Z,8.33
2018-06-16T14:55:03.370Z,8.77
2018-06-16T14:57:31.678Z,8.17
2018-06-16T14:59:59.992Z,7.97
2018-06-16T15:02:28.318Z,8.07
2018-06-16T15:04:56.649Z,7.50
2018-06-16T15:07:24.922Z,8.10
2018-06-16T15:09:53.350Z,8.80
2018-06-16T15:12:21.434Z,9.13
2018-06-16T15:14:49.742Z,8.87
2018-06-16T15:17:18.068Z,8.67
2018-06-16T15:19:46.390Z,8.40
2018-06-16T15:22:14.908Z,7.83
2018-06-16T15:24:43.174Z,7.20
2018-06-16T15:27:11.464Z,7.53
2018-06-16T15:29:39.900Z,7.80
2018-06-16T15:32:08.186Z,7.27
2018-06-16T15:34:36.509Z,8.47
2018-06-16T15:37:04.830Z,6.83
2018-06-16T15:39:33.150Z,8.27
2018-06-16T15:42:01.484Z,7.17
2018-06-16T15:44:29.804Z,7.73
2018-06-16T15:46:58.122Z,7.00
2018-06-16T15:49:26.417Z,8.50
2018-06-16T15:51:54.732Z,8.17
2018-06-16T15:54:23.063Z,8.40
2018-06-16T15:56:51.378Z,8.50
2018-06-16T15:59:19.684Z,7.90
2018-06-16T16:01:48.036Z,8.17
2018-06-16T16:04:16.346Z,8.27
2018-06-16T16:06:44.703Z,8.50
2018-06-16T16:09:12.772Z,7.17
2018-06-16T16:11:41.207Z,7.27
2018-06-16T16:14:09.519Z,7.87
2018-06-16T16:16:37.852Z,7.57
2018-06-16T16:19:06.181Z,7.73
2018-06-16T16:21:34.518Z,8.23
2018-06-16T16:24:02.853Z,7.10
2018-06-16T16:26:31.187Z,6.57
2018-06-16T16:29:00.116Z,7.20
2018-06-16T16:31:28.422Z,6.10
2018-06-16T16:33:56.720Z,5.63
2018-06-16T16:36:25.113Z,5.30
2018-06-16T16:38:53.432Z,6.57
2018-06-16T16:41:21.730Z,7.03
2018-06-16T16:43:50.026Z,7.40
2018-06-16T16:46:18.376Z,6.73
2018-06-16T16:48:46.679Z,6.97
2018-06-16T16:51:14.971Z,6.60
2018-06-16T16:53:43.286Z,6.67
2018-06-16T16:56:11.619Z,6.97
2018-06-16T16:58:39.924Z,6.90
2018-06-16T17:01:08.224Z,6.70
2018-06-16T17:03:36.537Z,6.47
2018-06-16T17:06:05.106Z,6.07
2018-06-16T17:08:33.384Z,5.67
2018-06-16T17:11:01.698Z,5.60
2018-06-16T17:13:30.032Z,5.70
2018-06-16T17:15:58.349Z,4.77
2018-06-16T17:18:26.661Z,4.53
2018-06-16T17:20:54.978Z,5.10
2018-06-16T17:23:23.336Z,6.63
2018-06-16T17:25:51.671Z,6.47
2018-06-16T17:28:19.992Z,4.50
2018-06-16T17:30:48.314Z,4.10
2018-06-16T17:33:16.628Z,4.10
2018-06-16T17:35:44.967Z,3.90
2018-06-16T17:38:13.244Z,21.07
2018-06-16T17:40:41.657Z,4.57
2018-06-16T17:43:09.972Z,25.80
2018-06-16T17:45:38.613Z,3.00
2018-06-16T17:48:06.708Z,12.57
2018-06-16T17:50:35.038Z,2.67
2018-06-16T17:53:03.369Z,2.33
2018-06-16T17:55:31.688Z,2.83
2018-06-16T17:58:00.000Z,2.60
2018-06-16T18:00:28.310Z,2.30
2018-06-16T18:02:56.616Z,2.90
2018-06-16T18:05:24.958Z,5.87
2018-06-16T18:07:53.265Z,2.80
2018-06-16T18:10:21.570Z,2.50
2018-06-16T18:12:49.847Z,2.40
2018-06-16T18:15:18.157Z,5.60
2018-06-16T18:17:46.483Z,3.20
2018-06-16T18:20:14.768Z,4.83
2018-06-16T18:22:43.061Z,2.80
2018-06-16T18:25:11.366Z,2.50
2018-06-16T18:27:39.665Z,2.67
2018-06-16T18:30:07.962Z,2.63
2018-06-16T18:32:36.285Z,2.40
2018-06-16T18:35:04.636Z,2.70
2018-06-16T18:37:32.945Z,3.53
2018-06-16T18:40:01.275Z,6.57
2018-06-16T18:42:29.549Z,3.27
2018-06-16T18:44:57.845Z,4.03
2018-06-16T18:47:26.127Z,3.50
2018-06-16T18:49:54.304Z,3.47
2018-06-16T18:52:22.610Z,3.90
2018-06-16T18:54:50.942Z,4.60
2018-06-16T18:57:19.257Z,4.03
2018-06-16T18:59:47.637Z,4.57
2018-06-16T19:02:15.933Z,4.50
2018-06-16T19:04:44.211Z,6.43
2018-06-16T19:07:12.538Z,6.20
2018-06-16T19:09:40.835Z,6.67
2018-06-16T19:12:09.155Z,5.77
2018-06-16T19:14:37.471Z,7.70
2018-06-16T19:17:05.844Z,6.90
2018-06-16T19:19:33.891Z,8.27
2018-06-16T19:22:02.205Z,7.93
2018-06-16T19:24:30.530Z,8.50
2018-06-16T19:26:58.849Z,7.90
2018-06-16T19:29:27.142Z,9.10
2018-06-16T19:31:55.432Z,9.53
2018-06-16T19:34:23.778Z,10.10
2018-06-16T19:36:52.125Z,10.23
2018-06-16T19:39:20.442Z,15.83
2018-06-16T19:41:48.735Z,11.67
2018-06-16T19:44:17.021Z,10.37
2018-06-16T19:46:45.327Z,10.90
2018-06-16T19:49:13.668Z,10.87
2018-06-16T19:51:42.035Z,10.43
2018-06-16T19:54:10.419Z,10.37
2018-06-16T19:56:38.705Z,11.20
2018-06-16T19:59:07.049Z,13.10
2018-06-16T20:01:35.369Z,10.80
2018-06-16T20:04:03.717Z,13.13
2018-06-16T20:06:32.038Z,11.13
2018-06-16T20:09:00.497Z,11.33
2018-06-16T20:11:28.861Z,10.60
2018-06-16T20:13:57.346Z,10.83
2018-06-16T20:16:25.661Z,10.47
2018-06-16T20:18:54.005Z,10.97
2018-06-16T20:21:22.431Z,17.13
2018-06-16T20:23:50.776Z,33.73
2018-06-16T20:26:19.085Z,20.07
2018-06-16T20:28:47.423Z,16.63
2018-06-16T20:31:15.868Z,16.37
2018-06-16T20:33:44.422Z,15.80
2018-06-16T20:36:12.733Z,12.47
2018-06-16T20:38:41.023Z,22.43
2018-06-16T20:41:09.389Z,22.47
2018-06-16T20:43:37.707Z,27.97
2018-06-16T20:46:06.181Z,31.90
2018-06-16T20:48:34.541Z,17.50
2018-06-16T20:51:03.716Z,15.60
2018-06-16T20:53:32.109Z,18.23
2018-06-16T20:56:00.440Z,17.73
2018-06-16T20:58:28.807Z,17.60
2018-06-16T21:00:56.897Z,28.70
2018-06-16T21:03:25.933Z,16.80
2018-06-16T21:05:54.254Z,13.30
2018-06-16T21:08:23.202Z,16.03
2018-06-16T21:10:51.503Z,31.57
2018-06-16T21:13:20.066Z,14.60
2018-06-16T21:15:48.438Z,12.87
2018-06-16T21:18:16.761Z,13.80
2018-06-16T21:20:45.093Z,13.10
2018-06-16T21:23:13.405Z,12.37
2018-06-16T21:25:41.733Z,10.87
2018-06-16T21:28:10.036Z,10.43
2018-06-16T21:30:38.349Z,11.30
2018-06-16T21:33:06.706Z,11.37
2018-06-16T21:35:35.029Z,11.30
2018-06-16T21:38:03.353Z,10.90
2018-06-16T21:40:31.669Z,12.33
2018-06-16T21:42:59.971Z,11.30
2018-06-16T21:45:28.267Z,11.20
2018-06-16T21:47:56.593Z,11.90
2018-06-16T21:50:24.913Z,11.23
2018-06-16T21:52:53.245Z,10.40
2018-06-16T21:55:21.623Z,10.53
2018-06-16T21:57:49.939Z,10.67
2018-06-16T22:00:18.226Z,9.53
2018-06-16T22:02:46.523Z,10.67
2018-06-16T22:05:14.853Z,10.07
2018-06-16T22:07:43.139Z,10.43
2018-06-16T22:10:11.479Z,10.90
2018-06-16T22:12:39.787Z,10.40
2018-06-16T22:15:14.483Z,10.33
2018-06-16T22:17:42.847Z,10.60
2018-06-16T22:20:11.133Z,10.63
2018-06-16T22:22:39.441Z,10.77
2018-06-16T22:25:07.508Z,10.77
2018-06-16T22:27:35.816Z,12.03
2018-06-16T22:30:04.149Z,12.33
2018-06-16T22:32:32.452Z,11.47
2018-06-16T22:35:00.759Z,11.30
2018-06-16T22:37:29.085Z,10.83
2018-06-16T22:39:57.460Z,11.57
2018-06-16T22:42:25.806Z,11.30
2018-06-16T22:44:54.132Z,11.07
2018-06-16T22:47:22.449Z,11.20
2018-06-16T22:49:50.759Z,11.07
2018-06-16T22:52:19.103Z,12.20
2018-06-16T22:54:47.403Z,11.90
2018-06-16T22:57:15.714Z,10.67
2018-06-16T22:59:44.025Z,19.07
2018-06-16T23:02:12.343Z,12.03
2018-06-16T23:04:40.656Z,11.03
2018-06-16T23:07:08.967Z,12.10
2018-06-16T23:09:37.300Z,11.87
2018-06-16T23:12:05.595Z,11.53
2018-06-16T23:14:33.959Z,11.70
2018-06-16T23:17:02.249Z,11.53
2018-06-16T23:19:30.598Z,11.20
2018-06-16T23:21:58.867Z,11.77
2018-06-16T23:24:27.180Z,11.20
2018-06-16T23:26:55.529Z,12.10
2018-06-16T23:29:23.860Z,12.50
2018-06-16T23:31:52.145Z,11.90
2018-06-16T23:34:20.475Z,11.63
2018-06-16T23:36:48.769Z,11.50
2018-06-16T23:39:17.139Z,11.83
2018-06-16T23:41:45.491Z,13.07
2018-06-16T23:44:13.775Z,13.47
2018-06-16T23:46:42.155Z,14.30
2018-06-16T23:49:10.519Z,14.00
2018-06-16T23:51:38.805Z,13.53
2018-06-16T23:54:07.255Z,14.83
2018-06-16T23:56:35.561Z,14.93
2018-06-16T23:59:03.883Z,16.00
